Time;durP1;ratioP1;P1;durP2;ratioP2;P2;SDS_P1;SDS_P2;PMS_P1;PMS_P2;Temp;Humidity;BMP_temperature;BMP_pressure;BME280_temperature;BME280_humidity;BME280_pressure;Samples;Min_cycle;Max_cycle;Signal;HPM_P1;HPM_P2
2022/11/22 00:00:26;;;;;;;86.95;26.13;;;;;;;;;;5032526;28;20055;-73
2022/11/22 00:02:54;;;;;;;76.88;25.90;;;;;;;;;;5029094;28;20143;-74
2022/11/22 00:05:21;;;;;;;95.25;26.15;;;;;;;;;;5030133;28;20049;-73
2022/11/22 00:07:49;;;;;;;78.85;24.38;;;;;;;;;;5027349;28;20045;-72
2022/11/22 00:10:16;;;;;;;60.65;24.20;;;;;;;;;;5031094;28;20065;-73
2022/11/22 00:12:45;;;;;;;67.22;23.33;;;;;;;;;;5027529;28;20045;-72
2022/11/22 00:15:13;;;;;;;80.47;23.95;;;;;;;;;;5028310;28;20101;-73
2022/11/22 00:17:41;;;;;;;79.68;24.77;;;;;;;;;;5030805;28;20069;-72
2022/11/22 00:20:10;;;;;;;62.00;22.83;;;;;;;;;;5028206;28;20057;-73
2022/11/22 00:22:38;;;;;;;77.88;24.23;;;;;;;;;;5028794;28;20119;-73
2022/11/22 00:25:06;;;;;;;67.00;22.17;;;;;;;;;;5029825;28;20049;-73
2022/11/22 00:27:33;;;;;;;67.95;21.98;;;;;;;;;;5025578;28;20054;-73
2022/11/22 00:30:02;;;;;;;66.95;21.75;;;;;;;;;;5030483;28;20076;-73
2022/11/22 00:32:29;;;;;;;58.47;21.38;;;;;;;;;;5030613;28;20042;-73
2022/11/22 00:34:56;;;;;;;100.97;23.63;;;;;;;;;;5029075;28;20052;-73
2022/11/22 00:37:23;;;;;;;60.63;20.55;;;;;;;;;;5026661;28;20050;-73
2022/11/22 00:39:51;;;;;;;54.20;20.65;;;;;;;;;;5028913;28;20080;-72
2022/11/22 00:42:18;;;;;;;72.15;21.55;;;;;;;;;;5029225;28;20049;-73
2022/11/22 00:44:45;;;;;;;71.63;21.73;;;;;;;;;;5029822;28;20049;-73
2022/11/22 00:47:14;;;;;;;72.95;21.15;;;;;;;;;;5042604;28;20538;-72
2022/11/22 00:49:41;;;;;;;47.40;19.98;;;;;;;;;;5032745;28;20053;-73
2022/11/22 00:52:08;;;;;;;63.50;20.58;;;;;;;;;;5037873;28;20452;-73
2022/11/22 00:54:35;;;;;;;51.10;18.45;;;;;;;;;;5032904;28;20534;-73
2022/11/22 00:57:03;;;;;;;65.65;20.92;;;;;;;;;;5034895;28;20527;-73
2022/11/22 00:59:31;;;;;;;55.63;19.95;;;;;;;;;;5030357;28;20103;-73
2022/11/22 01:01:58;;;;;;;48.45;17.30;;;;;;;;;;5032241;28;20080;-73
2022/11/22 01:04:27;;;;;;;53.22;18.63;;;;;;;;;;5031137;28;20049;-72
2022/11/22 01:06:54;;;;;;;42.45;17.00;;;;;;;;;;5028380;28;20060;-72
2022/11/22 01:09:23;;;;;;;69.72;20.40;;;;;;;;;;5029534;28;20103;-73
2022/11/22 01:11:50;;;;;;;61.85;18.92;;;;;;;;;;5026695;28;20515;-73
2022/11/22 01:14:17;;;;;;;48.70;17.70;;;;;;;;;;5025681;28;20472;-73
2022/11/22 01:16:45;;;;;;;43.83;17.48;;;;;;;;;;5025221;28;20053;-73
2022/11/22 01:19:13;;;;;;;51.70;17.52;;;;;;;;;;5021758;28;20064;-73
2022/11/22 01:21:41;;;;;;;52.60;18.63;;;;;;;;;;5025308;28;20137;-73
2022/11/22 01:24:09;;;;;;;46.55;17.63;;;;;;;;;;5028343;28;20050;-73
2022/11/22 01:26:36;;;;;;;50.65;17.73;;;;;;;;;;5030825;28;20148;-74
2022/11/22 01:29:04;;;;;;;75.05;19.73;;;;;;;;;;5030895;28;20514;-73
2022/11/22 01:31:31;;;;;;;44.25;17.10;;;;;;;;;;5031621;28;20052;-73
2022/11/22 01:33:59;;;;;;;44.42;16.67;;;;;;;;;;5030788;28;20049;-73
2022/11/22 01:36:26;;;;;;;54.72;18.73;;;;;;;;;;5028074;28;20061;-72
2022/11/22 01:38:55;;;;;;;43.08;16.67;;;;;;;;;;5028468;28;20141;-73
2022/11/22 01:41:22;;;;;;;46.53;17.65;;;;;;;;;;5028729;28;20053;-73
2022/11/22 01:43:49;;;;;;;35.75;16.23;;;;;;;;;;5030321;28;20056;-73
2022/11/22 01:46:21;;;;;;;42.88;16.15;;;;;;;;;;5024297;28;20057;-73
2022/11/22 01:48:51;;;;;;;44.88;16.25;;;;;;;;;;5028249;28;20052;-73
2022/11/22 01:51:21;;;;;;;50.10;18.58;;;;;;;;;;5024422;28;20049;-73
2022/11/22 01:53:49;;;;;;;49.97;17.95;;;;;;;;;;5028052;28;20060;-73
2022/11/22 01:56:19;;;;;;;42.70;16.25;;;;;;;;;;5028815;28;20045;-73
2022/11/22 01:58:49;;;;;;;36.22;16.33;;;;;;;;;;5028682;28;20055;-73
2022/11/22 02:01:16;;;;;;;54.33;18.50;;;;;;;;;;5028427;28;20053;-73
2022/11/22 02:03:45;;;;;;;50.42;17.13;;;;;;;;;;5025549;28;20084;-73
2022/11/22 02:06:13;;;;;;;51.22;18.35;;;;;;;;;;5045958;28;20056;-73
2022/11/22 02:08:42;;;;;;;44.00;15.95;;;;;;;;;;5027473;28;20532;-73
2022/11/22 02:11:10;;;;;;;49.03;18.48;;;;;;;;;;5026791;28;20045;-73
2022/11/22 02:13:40;;;;;;;66.63;18.92;;;;;;;;;;5027067;28;20407;-73
2022/11/22 02:16:08;;;;;;;39.25;16.92;;;;;;;;;;5021982;28;20746;-72
2022/11/22 02:18:36;;;;;;;46.83;18.52;;;;;;;;;;5017242;28;20049;-73
2022/11/22 02:21:03;;;;;;;61.58;19.02;;;;;;;;;;5020981;28;20071;-74
2022/11/22 02:23:35;;;;;;;47.15;18.20;;;;;;;;;;5029115;28;20102;-73
2022/11/22 02:26:04;;;;;;;40.72;17.45;;;;;;;;;;5028634;28;20068;-72
2022/11/22 02:28:32;;;;;;;49.03;18.67;;;;;;;;;;5025090;28;20056;-73
2022/11/22 02:30:59;;;;;;;43.80;17.92;;;;;;;;;;5029697;28;20041;-73
2022/11/22 02:33:26;;;;;;;35.35;16.58;;;;;;;;;;5019647;28;20045;-73
2022/11/22 02:35:54;;;;;;;43.95;17.63;;;;;;;;;;5028933;28;20097;-73
2022/11/22 02:38:23;;;;;;;36.38;17.20;;;;;;;;;;5028274;28;20490;-72
2022/11/22 02:40:52;;;;;;;46.15;18.13;;;;;;;;;;5027748;28;20057;-73
2022/11/22 02:43:22;;;;;;;53.95;18.67;;;;;;;;;;5027097;28;20052;-73
2022/11/22 02:45:49;;;;;;;36.53;17.17;;;;;;;;;;5029662;28;20056;-72
2022/11/22 02:48:18;;;;;;;40.13;17.90;;;;;;;;;;5024479;28;20535;-73
2022/11/22 02:50:45;;;;;;;46.47;18.83;;;;;;;;;;5038505;28;20045;-73
2022/11/22 02:53:13;;;;;;;38.88;18.13;;;;;;;;;;5023838;28;20040;-72
2022/11/22 02:55:40;;;;;;;38.05;17.88;;;;;;;;;;5026941;28;20057;-73
2022/11/22 02:58:08;;;;;;;38.72;18.08;;;;;;;;;;5027678;28;20064;-73
2022/11/22 03:00:37;;;;;;;40.35;18.25;;;;;;;;;;5026191;28;20048;-73
2022/11/22 03:03:04;;;;;;;46.08;17.92;;;;;;;;;;5028411;28;20052;-74
2022/11/22 03:05:31;;;;;;;37.70;16.85;;;;;;;;;;5023820;28;20045;-73
2022/11/22 03:07:59;;;;;;;43.75;18.67;;;;;;;;;;5024246;28;20056;-73
2022/11/22 03:10:26;;;;;;;43.58;18.80;;;;;;;;;;5029873;28;20044;-73
2022/11/22 03:12:53;;;;;;;39.47;17.70;;;;;;;;;;5029411;28;20044;-73
2022/11/22 03:15:20;;;;;;;44.10;19.50;;;;;;;;;;5028198;28;20056;-73
2022/11/22 03:17:49;;;;;;;69.18;22.23;;;;;;;;;;5031660;28;20049;-73
2022/11/22 03:20:16;;;;;;;48.28;20.38;;;;;;;;;;5026035;28;20053;-73
2022/11/22 03:22:43;;;;;;;47.47;20.20;;;;;;;;;;5023054;28;20045;-73
2022/11/22 03:25:11;;;;;;;45.45;19.77;;;;;;;;;;5021438;28;20045;-73
2022/11/22 03:27:38;;;;;;;51.33;20.48;;;;;;;;;;5025982;28;20060;-73
2022/11/22 03:30:06;;;;;;;38.42;18.30;;;;;;;;;;5023770;28;20500;-73
2022/11/22 03:32:33;;;;;;;41.78;19.80;;;;;;;;;;5024124;28;20787;-73
2022/11/22 03:35:02;;;;;;;41.00;19.90;;;;;;;;;;5023688;28;20080;-73
2022/11/22 03:37:29;;;;;;;39.70;18.67;;;;;;;;;;5020966;28;20436;-73
2022/11/22 03:39:56;;;;;;;46.22;19.38;;;;;;;;;;5023645;28;20060;-73
2022/11/22 03:42:23;;;;;;;40.22;20.52;;;;;;;;;;5017529;28;20064;-72
2022/11/22 03:44:50;;;;;;;39.50;19.60;;;;;;;;;;5023600;28;20480;-73
2022/11/22 03:47:18;;;;;;;52.88;21.67;;;;;;;;;;5021081;28;20072;-73
2022/11/22 03:49:45;;;;;;;47.58;20.77;;;;;;;;;;5014432;28;20567;-73
2022/11/22 03:52:14;;;;;;;53.10;21.55;;;;;;;;;;5038468;28;20049;-73
2022/11/22 03:54:41;;;;;;;54.97;22.92;;;;;;;;;;5022457;28;20053;-74
2022/11/22 03:57:08;;;;;;;53.53;21.02;;;;;;;;;;5022826;28;20682;-74
2022/11/22 03:59:35;;;;;;;48.08;20.98;;;;;;;;;;5021864;28;20057;-74
2022/11/22 04:02:03;;;;;;;44.17;20.25;;;;;;;;;;5016664;28;20052;-73
2022/11/22 04:04:30;;;;;;;47.65;20.02;;;;;;;;;;5022122;28;20061;-74
2022/11/22 04:06:57;;;;;;;42.63;19.73;;;;;;;;;;5027804;28;20052;-73
2022/11/22 04:09:26;;;;;;;65.43;24.05;;;;;;;;;;5028567;28;20054;-73
2022/11/22 04:11:53;;;;;;;55.42;22.15;;;;;;;;;;5026296;28;20622;-74
2022/11/22 04:17:05;;;;;;;54.40;22.13;;;;;;;;;;5028322;28;20512;-74
2022/11/22 04:19:32;;;;;;;63.58;23.30;;;;;;;;;;5020216;28;20053;-72
2022/11/22 04:21:58;;;;;;;66.07;25.30;;;;;;;;;;5023069;28;20045;-72
2022/11/22 04:27:12;;;;;;;47.97;21.80;;;;;;;;;;5022398;28;20060;-73
2022/11/22 04:29:39;;;;;;;47.83;21.08;;;;;;;;;;5022172;28;20064;-73
2022/11/22 04:34:51;;;;;;;46.13;22.17;;;;;;;;;;5020668;28;20493;-73
2022/11/22 04:37:18;;;;;;;47.10;21.25;;;;;;;;;;5023641;28;20061;-73
2022/11/22 04:39:47;;;;;;;46.10;21.42;;;;;;;;;;5025944;28;20409;-73
2022/11/22 04:44:59;;;;;;;48.45;21.48;;;;;;;;;;5026537;28;20089;-73
2022/11/22 04:52:53;;;;;;;42.85;20.65;;;;;;;;;;5024392;28;20076;-73
2022/11/22 04:55:22;;;;;;;39.13;20.60;;;;;;;;;;5024508;28;20068;-73
2022/11/22 04:57:49;;;;;;;42.60;20.92;;;;;;;;;;5025591;28;20601;-73
2022/11/22 05:00:17;;;;;;;38.50;20.83;;;;;;;;;;5024524;28;20057;-74
2022/11/22 05:02:44;;;;;;;51.65;23.92;;;;;;;;;;5025427;28;20052;-73
2022/11/22 05:05:11;;;;;;;40.15;20.55;;;;;;;;;;5027070;28;20064;-73
2022/11/22 05:07:39;;;;;;;55.83;22.90;;;;;;;;;;5025602;28;20124;-74
2022/11/22 05:10:08;;;;;;;43.78;20.35;;;;;;;;;;5025240;28;20576;-73
2022/11/22 05:12:36;;;;;;;56.15;24.10;;;;;;;;;;5025383;28;20045;-74
2022/11/22 05:15:04;;;;;;;48.50;20.80;;;;;;;;;;5026748;28;20072;-73
2022/11/22 05:17:31;;;;;;;54.33;23.65;;;;;;;;;;5029924;28;20056;-74
2022/11/22 05:19:58;;;;;;;56.83;23.40;;;;;;;;;;5023729;28;20046;-74
2022/11/22 05:25:08;;;;;;;49.70;23.00;;;;;;;;;;5021488;28;20071;-74
2022/11/22 05:27:37;;;;;;;45.15;21.60;;;;;;;;;;5026017;28;20063;-73
2022/11/22 05:30:05;;;;;;;52.17;22.48;;;;;;;;;;5022461;28;20136;-74
2022/11/22 05:32:33;;;;;;;58.53;23.65;;;;;;;;;;5019054;28;20493;-73
2022/11/22 05:35:00;;;;;;;65.75;25.48;;;;;;;;;;5022727;28;20399;-74
2022/11/22 05:37:28;;;;;;;47.35;23.20;;;;;;;;;;5027202;28;20076;-74
2022/11/22 05:39:55;;;;;;;57.53;25.13;;;;;;;;;;5025479;28;20133;-74
2022/11/22 05:42:22;;;;;;;60.72;23.20;;;;;;;;;;5027078;28;20148;-73
2022/11/22 05:44:51;;;;;;;51.10;22.95;;;;;;;;;;5024335;28;20079;-74
2022/11/22 05:47:18;;;;;;;47.95;23.13;;;;;;;;;;5026920;28;20080;-74
2022/11/22 05:49:45;;;;;;;76.75;25.98;;;;;;;;;;5029157;28;20070;-74
2022/11/22 05:52:12;;;;;;;39.20;21.85;;;;;;;;;;5028671;28;20083;-73
2022/11/22 05:54:40;;;;;;;60.72;23.88;;;;;;;;;;5027070;28;20057;-74
2022/11/22 05:57:07;;;;;;;46.80;21.83;;;;;;;;;;5025444;28;20075;-74
2022/11/22 05:59:34;;;;;;;54.45;23.52;;;;;;;;;;5027068;28;20064;-73
2022/11/22 06:02:03;;;;;;;45.95;22.38;;;;;;;;;;5026668;28;20060;-74
2022/11/22 06:04:30;;;;;;;47.08;22.60;;;;;;;;;;5025369;28;20049;-74
2022/11/22 06:06:57;;;;;;;65.00;23.73;;;;;;;;;;5017062;28;20054;-74
2022/11/22 06:09:24;;;;;;;58.63;21.17;;;;;;;;;;5021670;28;20053;-73
2022/11/22 06:11:52;;;;;;;71.22;24.42;;;;;;;;;;5024771;28;20143;-73
2022/11/22 06:14:19;;;;;;;51.63;21.75;;;;;;;;;;5023509;28;20061;-73
2022/11/22 06:16:46;;;;;;;56.13;22.27;;;;;;;;;;5022762;28;20057;-74
2022/11/22 06:19:15;;;;;;;46.13;20.85;;;;;;;;;;5010450;28;20054;-73
2022/11/22 06:21:42;;;;;;;57.72;21.67;;;;;;;;;;5017732;28;20065;-74
2022/11/22 06:24:09;;;;;;;62.53;22.15;;;;;;;;;;5023294;28;20772;-74
2022/11/22 06:26:37;;;;;;;44.67;18.95;;;;;;;;;;5024494;28;20056;-74
2022/11/22 06:29:04;;;;;;;43.30;19.25;;;;;;;;;;5027232;28;20049;-74
2022/11/22 06:31:31;;;;;;;53.20;20.30;;;;;;;;;;5024980;28;20041;-75
2022/11/22 06:33:59;;;;;;;75.88;22.17;;;;;;;;;;5029183;28;20048;-74
2022/11/22 06:36:29;;;;;;;55.55;21.67;;;;;;;;;;5025783;28;20059;-74
2022/11/22 06:38:57;;;;;;;68.22;22.42;;;;;;;;;;5026390;28;20045;-74
2022/11/22 06:41:25;;;;;;;63.10;21.42;;;;;;;;;;5022566;28;20049;-74
2022/11/22 06:43:53;;;;;;;60.63;21.30;;;;;;;;;;5024054;28;20041;-75
2022/11/22 06:46:21;;;;;;;48.25;19.65;;;;;;;;;;5024876;28;20048;-76
2022/11/22 06:48:49;;;;;;;52.67;20.67;;;;;;;;;;5025658;28;20041;-76
2022/11/22 06:51:17;;;;;;;43.75;18.30;;;;;;;;;;5030209;28;20044;-76
2022/11/22 06:53:46;;;;;;;70.38;21.80;;;;;;;;;;5028581;28;20120;-76
2022/11/22 06:56:15;;;;;;;52.28;19.55;;;;;;;;;;5028010;28;20048;-77
2022/11/22 06:58:43;;;;;;;50.53;19.50;;;;;;;;;;5028341;28;20041;-76
2022/11/22 07:01:15;;;;;;;49.28;19.30;;;;;;;;;;5027345;28;20088;-76
2022/11/22 07:03:43;;;;;;;47.88;18.73;;;;;;;;;;5022488;28;20044;-77
2022/11/22 07:06:11;;;;;;;45.20;18.92;;;;;;;;;;5025288;28;20056;-76
2022/11/22 07:08:39;;;;;;;47.47;19.65;;;;;;;;;;5041416;28;20052;-76
2022/11/22 07:11:08;;;;;;;62.95;20.92;;;;;;;;;;5026863;28;20056;-76
2022/11/22 07:13:37;;;;;;;44.63;18.67;;;;;;;;;;5027344;28;20511;-76
2022/11/22 07:16:05;;;;;;;46.45;17.85;;;;;;;;;;5028245;28;20577;-76
2022/11/22 07:18:33;;;;;;;49.85;16.75;;;;;;;;;;5028423;28;20045;-76
2022/11/22 07:21:01;;;;;;;41.30;14.60;;;;;;;;;;5024812;28;20528;-76
2022/11/22 07:23:28;;;;;;;45.55;15.95;;;;;;;;;;5025738;28;20167;-75
2022/11/22 07:25:55;;;;;;;48.85;16.63;;;;;;;;;;5027410;28;20083;-76
2022/11/22 07:28:25;;;;;;;42.17;14.75;;;;;;;;;;5020988;28;20061;-76
2022/11/22 07:30:52;;;;;;;39.58;15.63;;;;;;;;;;5020473;28;20068;-76
2022/11/22 07:33:19;;;;;;;41.15;14.07;;;;;;;;;;5024349;28;20720;-76
2022/11/22 07:35:47;;;;;;;36.20;13.77;;;;;;;;;;5022540;28;20081;-79
2022/11/22 07:38:14;;;;;;;51.40;15.13;;;;;;;;;;5021785;28;20103;-77
2022/11/22 07:40:41;;;;;;;47.72;14.50;;;;;;;;;;5019861;28;20056;-77
2022/11/22 07:43:09;;;;;;;33.33;12.23;;;;;;;;;;5018387;28;20627;-78
2022/11/22 07:45:38;;;;;;;36.00;12.13;;;;;;;;;;5022725;28;20068;-78
2022/11/22 07:48:05;;;;;;;34.83;10.05;;;;;;;;;;5025256;28;20065;-77
2022/11/22 07:50:34;;;;;;;25.88;9.60;;;;;;;;;;5022587;28;20500;-78
2022/11/22 07:53:02;;;;;;;31.85;10.13;;;;;;;;;;5024913;28;20045;-77
2022/11/22 07:55:30;;;;;;;31.02;9.05;;;;;;;;;;5022458;28;20136;-78
2022/11/22 07:57:59;;;;;;;33.40;9.02;;;;;;;;;;5024969;28;21231;-77
2022/11/22 08:00:28;;;;;;;31.45;8.30;;;;;;;;;;5024328;28;20041;-78
2022/11/22 08:02:58;;;;;;;28.85;8.52;;;;;;;;;;5022166;28;20049;-77
2022/11/22 08:05:25;;;;;;;27.38;8.60;;;;;;;;;;5026289;28;20060;-77
2022/11/22 08:07:53;;;;;;;29.55;7.60;;;;;;;;;;5028897;28;20045;-77
2022/11/22 08:10:21;;;;;;;26.83;7.40;;;;;;;;;;5021650;28;20141;-79
2022/11/22 08:12:49;;;;;;;29.60;9.50;;;;;;;;;;5026011;28;20416;-77
2022/11/22 08:15:16;;;;;;;26.08;7.10;;;;;;;;;;5026048;28;20065;-78
2022/11/22 08:17:44;;;;;;;27.90;7.25;;;;;;;;;;5028198;28;20045;-78
2022/11/22 08:20:13;;;;;;;24.38;6.97;;;;;;;;;;5027096;28;20041;-77
2022/11/22 08:22:40;;;;;;;20.10;6.35;;;;;;;;;;5027038;28;20107;-78
2022/11/22 08:25:11;;;;;;;19.70;6.07;;;;;;;;;;5026119;28;20046;-78
2022/11/22 08:27:39;;;;;;;21.52;5.60;;;;;;;;;;5027126;28;20150;-78
2022/11/22 08:30:07;;;;;;;19.70;5.80;;;;;;;;;;5028020;28;20057;-77
2022/11/22 08:32:34;;;;;;;16.73;6.00;;;;;;;;;;5023162;28;20049;-78
2022/11/22 08:35:02;;;;;;;18.95;5.50;;;;;;;;;;5027987;28;20132;-78
2022/11/22 08:37:31;;;;;;;18.30;4.80;;;;;;;;;;5026493;28;20062;-77
2022/11/22 08:39:58;;;;;;;15.05;4.57;;;;;;;;;;5027192;28;20053;-78
2022/11/22 08:42:25;;;;;;;20.50;4.93;;;;;;;;;;5027334;28;20050;-78
2022/11/22 08:44:52;;;;;;;19.60;4.60;;;;;;;;;;5030266;28;20067;-78
2022/11/22 08:47:19;;;;;;;14.65;4.10;;;;;;;;;;5028394;28;20060;-78
2022/11/22 08:49:47;;;;;;;20.65;4.43;;;;;;;;;;5031474;28;20045;-78
2022/11/22 08:52:14;;;;;;;19.10;4.15;;;;;;;;;;5027006;28;20080;-78
2022/11/22 08:54:43;;;;;;;17.73;4.68;;;;;;;;;;5029497;28;20057;-77
2022/11/22 08:57:10;;;;;;;20.65;4.45;;;;;;;;;;5024927;28;20588;-78
2022/11/22 08:59:37;;;;;;;20.52;4.32;;;;;;;;;;5031167;28;20057;-78
2022/11/22 09:02:05;;;;;;;14.57;4.38;;;;;;;;;;5026621;28;20053;-76
2022/11/22 09:04:32;;;;;;;21.58;4.97;;;;;;;;;;5029091;28;20076;-80
2022/11/22 09:06:59;;;;;;;12.85;3.78;;;;;;;;;;5027018;28;20065;-78
2022/11/22 09:09:27;;;;;;;17.55;4.65;;;;;;;;;;5023270;28;20914;-79
2022/11/22 09:11:55;;;;;;;27.70;4.63;;;;;;;;;;5026415;28;20053;-77
2022/11/22 09:14:23;;;;;;;15.98;4.30;;;;;;;;;;5027427;28;20472;-77
2022/11/22 09:16:50;;;;;;;18.83;4.72;;;;;;;;;;5026740;28;20060;-77
2022/11/22 09:19:17;;;;;;;14.60;4.18;;;;;;;;;;5022958;28;20050;-77
2022/11/22 09:21:44;;;;;;;24.35;4.32;;;;;;;;;;5024187;28;20053;-77
2022/11/22 09:24:12;;;;;;;9.75;3.72;;;;;;;;;;5019596;28;20044;-77
2022/11/22 09:26:39;;;;;;;12.98;4.38;;;;;;;;;;5025892;28;20067;-79
2022/11/22 09:29:08;;;;;;;16.17;4.35;;;;;;;;;;5024062;28;20132;-79
2022/11/22 09:31:35;;;;;;;14.60;3.50;;;;;;;;;;5025748;28;20061;-77
2022/11/22 09:34:02;;;;;;;16.60;4.18;;;;;;;;;;5026024;28;20384;-77
2022/11/22 09:36:29;;;;;;;12.85;4.43;;;;;;;;;;5027477;28;20559;-77
2022/11/22 09:38:57;;;;;;;20.83;3.75;;;;;;;;;;5026395;28;20057;-78
2022/11/22 09:41:35;;;;;;;16.23;3.38;;;;;;;;;;5024993;28;20614;-78
2022/11/22 09:44:05;;;;;;;12.65;3.08;;;;;;;;;;5026897;28;20072;-77
2022/11/22 09:46:39;;;;;;;11.63;2.90;;;;;;;;;;5028917;28;20566;-81
2022/11/22 09:49:06;;;;;;;;;;;;;;;;;;5029726;28;20049;-78
2022/11/22 09:51:35;;;;;;;13.40;2.85;;;;;;;;;;5029936;28;19921;-78
2022/11/22 09:54:05;;;;;;;16.48;3.72;;;;;;;;;;5028575;28;20381;-77
2022/11/22 09:56:34;;;;;;;14.90;2.85;;;;;;;;;;5026566;28;20053;-77
2022/11/22 09:59:04;;;;;;;13.20;3.10;;;;;;;;;;5027482;28;20059;-78
2022/11/22 10:01:33;;;;;;;10.98;2.50;;;;;;;;;;5026916;28;20539;-77
2022/11/22 10:04:05;;;;;;;11.48;3.17;;;;;;;;;;5025971;28;20053;-77
2022/11/22 10:06:34;;;;;;;10.35;2.75;;;;;;;;;;5023293;28;20046;-78
2022/11/22 10:09:06;;;;;;;8.30;2.22;;;;;;;;;;5027939;28;20055;-79
2022/11/22 10:11:36;;;;;;;6.50;2.40;;;;;;;;;;5021217;28;20045;-78
2022/11/22 10:14:06;;;;;;;15.93;2.92;;;;;;;;;;5024600;28;20045;-79
2022/11/22 10:16:36;;;;;;;12.30;2.85;;;;;;;;;;5030470;28;20057;-78
2022/11/22 10:19:12;;;;;;;12.60;2.95;;;;;;;;;;5026400;28;20606;-79
2022/11/22 10:21:39;;;;;;;9.48;2.60;;;;;;;;;;5026590;28;20053;-78
2022/11/22 10:24:07;;;;;;;9.23;2.40;;;;;;;;;;5026003;28;20497;-78
2022/11/22 10:26:35;;;;;;;8.63;2.40;;;;;;;;;;5025852;28;20053;-78
2022/11/22 10:29:13;;;;;;;10.75;3.40;;;;;;;;;;5041641;28;20050;-77
2022/11/22 10:31:45;;;;;;;13.73;2.53;;;;;;;;;;5025220;28;20410;-77
2022/11/22 10:34:17;;;;;;;8.85;2.30;;;;;;;;;;5025233;28;20136;-77
2022/11/22 10:36:47;;;;;;;10.13;2.33;;;;;;;;;;5025378;28;20049;-78
2022/11/22 10:39:20;;;;;;;14.50;2.63;;;;;;;;;;5020055;28;20049;-77
2022/11/22 10:41:54;;;;;;;9.63;2.58;;;;;;;;;;5021685;28;20132;-78
2022/11/22 10:44:28;;;;;;;10.65;2.30;;;;;;;;;;5027002;28;20064;-78
2022/11/22 10:46:55;;;;;;;;;;;;;;;;;;5027079;28;20815;-78
2022/11/22 10:49:29;;;;;;;9.77;2.10;;;;;;;;;;5030336;28;19921;-79
2022/11/22 10:51:58;;;;;;;7.93;2.22;;;;;;;;;;5028045;28;20053;-78
2022/11/22 10:54:28;;;;;;;12.80;2.63;;;;;;;;;;5031553;28;20041;-78
2022/11/22 10:57:00;;;;;;;13.38;2.47;;;;;;;;;;5027855;28;20049;-78
2022/11/22 10:59:34;;;;;;;8.60;2.92;;;;;;;;;;5026155;28;20491;-79
2022/11/22 11:02:04;;;;;;;7.47;2.38;;;;;;;;;;5027849;28;20072;-79
2022/11/22 11:04:34;;;;;;;7.28;1.90;;;;;;;;;;5030358;28;20058;-78
2022/11/22 11:07:02;;;;;;;17.90;3.20;;;;;;;;;;5028481;28;20660;-77
2022/11/22 11:09:33;;;;;;;8.90;2.30;;;;;;;;;;5025563;28;20132;-77
2022/11/22 11:12:02;;;;;;;9.38;2.00;;;;;;;;;;5022739;28;20077;-78
2022/11/22 11:14:31;;;;;;;10.50;2.10;;;;;;;;;;5024107;28;20057;-78
2022/11/22 11:16:59;;;;;;;12.23;2.38;;;;;;;;;;5044155;28;20049;-77
2022/11/22 11:19:27;;;;;;;8.38;2.08;;;;;;;;;;5021645;28;20081;-76
2022/11/22 11:21:59;;;;;;;14.15;2.58;;;;;;;;;;5019642;28;20048;-77
2022/11/22 11:24:28;;;;;;;9.57;2.63;;;;;;;;;;5024573;28;20515;-77
2022/11/22 11:26:57;;;;;;;13.07;2.03;;;;;;;;;;5023332;28;20056;-77
2022/11/22 11:29:48;;;;;;;7.20;2.30;;;;;;;;;;5027066;28;20049;-78
2022/11/22 11:32:16;;;;;;;11.10;2.22;;;;;;;;;;5014060;28;20063;-78
2022/11/22 11:34:49;;;;;;;8.55;2.47;;;;;;;;;;5025377;28;20444;-77
2022/11/22 11:37:24;;;;;;;13.27;2.27;;;;;;;;;;5024433;28;20053;-78
2022/11/22 11:39:51;;;;;;;10.27;2.00;;;;;;;;;;5024416;28;20132;-78
2022/11/22 11:42:23;;;;;;;14.60;2.10;;;;;;;;;;5025051;28;20057;-79
2022/11/22 11:44:57;;;;;;;9.70;2.45;;;;;;;;;;5029091;28;20045;-78
2022/11/22 11:47:35;;;;;;;10.23;2.28;;;;;;;;;;5027231;28;20056;-78
2022/11/22 11:50:02;;;;;;;6.90;1.90;;;;;;;;;;5024333;28;20053;-77
2022/11/22 11:52:33;;;;;;;9.52;1.90;;;;;;;;;;5029063;28;20057;-77
2022/11/22 11:55:01;;;;;;;5.95;2.00;;;;;;;;;;5026088;28;20049;-78
2022/11/22 11:57:29;;;;;;;10.25;1.77;;;;;;;;;;5029287;28;20052;-79
2022/11/22 11:59:58;;;;;;;7.55;1.70;;;;;;;;;;5027646;28;20608;-77
2022/11/22 12:02:28;;;;;;;12.93;2.22;;;;;;;;;;5030941;28;20056;-78
2022/11/22 12:04:56;;;;;;;6.85;1.70;;;;;;;;;;5028700;28;20091;-78
2022/11/22 12:07:25;;;;;;;12.85;2.30;;;;;;;;;;5029492;28;20076;-77
2022/11/22 12:09:55;;;;;;;8.75;1.92;;;;;;;;;;5021386;28;20045;-78
2022/11/22 12:12:40;;;;;;;7.88;1.70;;;;;;;;;;5027498;28;20130;-78
2022/11/22 12:15:14;;;;;;;11.70;1.95;;;;;;;;;;5027268;28;20488;-77
2022/11/22 12:17:41;;;;;;;;;;;;;;;;;;5024677;28;20052;-77
2022/11/22 12:20:11;;;;;;;11.55;1.70;;;;;;;;;;5026252;28;20011;-78
2022/11/22 12:22:42;;;;;;;7.75;1.92;;;;;;;;;;5026526;28;20127;-79
2022/11/22 12:25:18;;;;;;;10.77;1.77;;;;;;;;;;5027510;28;20042;-79
2022/11/22 12:27:46;;;;;;;7.78;2.00;;;;;;;;;;5027614;28;20061;-78
2022/11/22 12:30:13;;;;;;;9.88;1.58;;;;;;;;;;5024711;28;20564;-78
2022/11/22 12:32:42;;;;;;;12.75;1.33;;;;;;;;;;5025605;28;20053;-78
2022/11/22 12:35:12;;;;;;;9.02;1.65;;;;;;;;;;5026592;28;20406;-77
2022/11/22 12:37:43;;;;;;;10.00;1.65;;;;;;;;;;5024867;28;20056;-77
2022/11/22 12:40:15;;;;;;;7.03;1.83;;;;;;;;;;5025026;28;20603;-77
2022/11/22 12:42:46;;;;;;;13.98;1.70;;;;;;;;;;5025896;28;20045;-78
2022/11/22 12:45:17;;;;;;;7.82;1.65;;;;;;;;;;5023978;28;20106;-78
2022/11/22 12:47:45;;;;;;;6.15;1.75;;;;;;;;;;5027507;28;20053;-77
2022/11/22 12:50:17;;;;;;;5.10;1.33;;;;;;;;;;5027524;28;20052;-78
2022/11/22 12:52:47;;;;;;;7.55;1.92;;;;;;;;;;5027619;28;20084;-77
2022/11/22 12:55:17;;;;;;;8.82;1.38;;;;;;;;;;5028722;28;20041;-78
2022/11/22 12:57:48;;;;;;;7.40;1.48;;;;;;;;;;5028535;28;20102;-78
2022/11/22 13:00:16;;;;;;;7.93;1.65;;;;;;;;;;5047137;28;20049;-78
2022/11/22 13:02:46;;;;;;;8.13;1.63;;;;;;;;;;5034615;28;20052;-78
2022/11/22 13:05:15;;;;;;;10.05;1.48;;;;;;;;;;5031298;28;20041;-78
2022/11/22 13:07:50;;;;;;;9.45;1.58;;;;;;;;;;5032006;28;20056;-78
2022/11/22 13:10:25;;;;;;;9.10;1.27;;;;;;;;;;5027677;28;20049;-78
2022/11/22 13:12:53;;;;;;;5.30;1.20;;;;;;;;;;5029127;28;20049;-79
2022/11/22 13:15:26;;;;;;;7.25;1.40;;;;;;;;;;5029838;28;20463;-78
2022/11/22 13:17:54;;;;;;;8.93;1.98;;;;;;;;;;5028512;28;20625;-77
2022/11/22 13:20:23;;;;;;;6.97;1.27;;;;;;;;;;5029614;28;20564;-78
2022/11/22 13:22:54;;;;;;;9.07;1.50;;;;;;;;;;5030393;28;20452;-78
2022/11/22 13:25:43;;;;;;;6.30;1.20;;;;;;;;;;5031181;28;20508;-78
2022/11/22 13:28:13;;;;;;;4.38;1.02;;;;;;;;;;5031137;28;20049;-77
2022/11/22 13:30:40;;;;;;;7.30;1.27;;;;;;;;;;5029282;28;20061;-78
2022/11/22 13:33:23;;;;;;;9.20;1.35;;;;;;;;;;5031571;28;20052;-79
2022/11/22 13:35:50;;;;;;;10.45;1.50;;;;;;;;;;5033348;28;20119;-78
2022/11/22 13:38:18;;;;;;;11.52;1.70;;;;;;;;;;5029813;28;20394;-78
2022/11/22 13:40:50;;;;;;;7.63;1.52;;;;;;;;;;5028178;28;20046;-79
2022/11/22 13:43:48;;;;;;;8.13;2.10;;;;;;;;;;5027187;28;20056;-78
2022/11/22 13:46:30;;;;;;;7.20;1.40;;;;;;;;;;4939065;28;20096;-78
2022/11/22 13:49:16;;;;;;;11.13;1.88;;;;;;;;;;5025743;28;20047;-78
2022/11/22 13:51:51;;;;;;;5.10;1.35;;;;;;;;;;5028636;28;20044;-78
2022/11/22 13:54:39;;;;;;;6.97;1.50;;;;;;;;;;5029687;28;20056;-77
2022/11/22 13:57:25;;;;;;;11.73;1.88;;;;;;;;;;5028259;28;20053;-78
2022/11/22 14:00:07;;;;;;;9.00;1.40;;;;;;;;;;5027119;28;20408;-77
2022/11/22 14:02:35;;;;;;;7.82;1.40;;;;;;;;;;5025454;28;20052;-78
2022/11/22 14:05:02;;;;;;;6.65;1.30;;;;;;;;;;5036764;28;20520;-77
2022/11/22 14:07:34;;;;;;;5.55;1.60;;;;;;;;;;5029004;28;20053;-77
2022/11/22 14:10:03;;;;;;;5.18;1.33;;;;;;;;;;5029358;28;20061;-77
2022/11/22 14:12:51;;;;;;;7.82;2.75;;;;;;;;;;5028016;28;20601;-77
2022/11/22 14:15:33;;;;;;;7.95;1.60;;;;;;;;;;5027339;28;20053;-77
2022/11/22 14:18:10;;;;;;;6.72;1.45;;;;;;;;;;5033108;28;20056;-78
2022/11/22 14:20:43;;;;;;;6.38;1.58;;;;;;;;;;5033463;28;20059;-76
2022/11/22 14:23:15;;;;;;;6.60;1.25;;;;;;;;;;5033559;28;20555;-77
2022/11/22 14:25:50;;;;;;;8.10;1.40;;;;;;;;;;5034187;28;20582;-77
2022/11/22 14:28:29;;;;;;;7.03;1.25;;;;;;;;;;5032643;28;20064;-77
2022/11/22 14:30:57;;;;;;;9.02;1.52;;;;;;;;;;5034989;28;20895;-77
2022/11/22 14:33:25;;;;;;;7.13;1.17;;;;;;;;;;5028100;28;20053;-77
2022/11/22 14:36:20;;;;;;;9.05;1.40;;;;;;;;;;5024563;28;20045;-77
2022/11/22 14:38:47;;;;;;;8.00;1.50;;;;;;;;;;4984122;28;20626;-77
2022/11/22 14:41:31;;;;;;;7.32;1.30;;;;;;;;;;5017858;28;20042;-76
2022/11/22 14:44:02;;;;;;;4.72;1.10;;;;;;;;;;5020599;28;20045;-76
2022/11/22 14:46:32;;;;;;;5.07;1.73;;;;;;;;;;5023719;28;20045;-76
2022/11/22 14:49:04;;;;;;;7.07;1.50;;;;;;;;;;5024455;28;20056;-77
2022/11/22 14:51:32;;;;;;;8.18;1.13;;;;;;;;;;5023883;28;20060;-76
2022/11/22 14:54:00;;;;;;;7.97;1.60;;;;;;;;;;5024151;28;20081;-77
2022/11/22 14:56:30;;;;;;;10.00;1.38;;;;;;;;;;5023769;28;20041;-76